createdAt,value
2024-05-09T00:01:23.229Z,12.9
2024-05-09T00:02:53.931Z,12.8
2024-05-09T00:04:24.504Z,12.8
2024-05-09T00:05:55.000Z,12.8
2024-05-09T00:07:25.600Z,12.9
2024-05-09T00:08:56.108Z,12.9
2024-05-09T00:10:32.812Z,12.8
2024-05-09T00:12:09.887Z,12.8
2024-05-09T00:13:40.683Z,12.8
2024-05-09T00:15:11.309Z,12.9
2024-05-09T00:16:41.726Z,12.9
2024-05-09T00:18:12.602Z,12.9
2024-05-09T00:19:43.725Z,12.9
2024-05-09T00:21:14.411Z,12.9
2024-05-09T00:22:45.156Z,12.9
2024-05-09T00:24:15.795Z,12.9
2024-05-09T00:25:46.404Z,12.9
2024-05-09T00:27:17.016Z,12.9
2024-05-09T00:28:47.546Z,12.9
2024-05-09T00:30:21.523Z,12.9
2024-05-09T00:32:05.932Z,12.9
2024-05-09T00:33:36.726Z,12.9
2024-05-09T00:35:07.907Z,12.9
2024-05-09T00:36:38.585Z,12.8
2024-05-09T00:38:09.117Z,12.9
2024-05-09T00:39:39.956Z,12.8
2024-05-09T00:41:10.526Z,12.9
2024-05-09T00:41:28.318Z,12.9
2024-05-09T00:42:59.008Z,12.9
2024-05-09T00:44:29.507Z,12.9
2024-05-09T00:46:00.151Z,12.9
2024-05-09T00:47:30.761Z,12.9
2024-05-09T00:49:01.891Z,12.9
2024-05-09T00:50:35.440Z,12.9
2024-05-09T00:52:09.109Z,12.9
2024-05-09T00:53:39.740Z,12.9
2024-05-09T00:55:10.368Z,12.9
2024-05-09T00:56:40.919Z,12.9
2024-05-09T00:58:11.417Z,12.9
2024-05-09T00:59:42.045Z,12.9
2024-05-09T01:01:12.619Z,12.9
2024-05-09T01:02:43.217Z,12.9
2024-05-09T01:04:14.040Z,12.9
2024-05-09T01:05:44.596Z,12.9
2024-05-09T01:07:15.266Z,12.9
2024-05-09T01:08:45.814Z,12.9
2024-05-09T01:10:17.570Z,12.9
2024-05-09T01:12:04.891Z,12.9
2024-05-09T01:13:35.600Z,12.9
2024-05-09T01:15:06.094Z,12.9
2024-05-09T01:16:36.619Z,12.9
2024-05-09T01:18:07.285Z,12.9
2024-05-09T01:19:39.773Z,12.9
2024-05-09T01:21:10.559Z,12.9
2024-05-09T01:22:41.178Z,12.9
2024-05-09T01:24:11.792Z,12.9
2024-05-09T01:25:42.376Z,12.9
2024-05-09T01:27:17.935Z,12.9
2024-05-09T01:28:48.594Z,12.9
2024-05-09T01:30:21.276Z,12.9
2024-05-09T01:32:06.056Z,12.9
2024-05-09T01:33:37.190Z,12.9
2024-05-09T01:35:08.655Z,12.9
2024-05-09T01:36:39.225Z,12.9
2024-05-09T01:38:09.870Z,12.9
2024-05-09T01:39:40.672Z,12.9
2024-05-09T01:41:11.176Z,12.9
2024-05-09T01:42:41.737Z,12.9
2024-05-09T01:44:12.147Z,12.9
2024-05-09T01:45:42.801Z,12.9
2024-05-09T01:47:13.397Z,12.9
2024-05-09T01:48:44.210Z,12.9
2024-05-09T01:52:07.096Z,12.9
2024-05-09T01:53:37.676Z,12.9
2024-05-09T01:55:08.333Z,12.9
2024-05-09T01:56:38.906Z,12.9
2024-05-09T01:58:09.724Z,12.9
2024-05-09T01:59:40.347Z,12.9
2024-05-09T02:03:17.137Z,12.9
2024-05-09T02:04:49.035Z,12.9
2024-05-09T02:06:19.924Z,12.9
2024-05-09T02:07:50.365Z,12.9
2024-05-09T02:09:20.977Z,12.9
2024-05-09T02:10:51.607Z,12.9
2024-05-09T02:12:22.525Z,12.9
2024-05-09T02:13:53.622Z,12.9
2024-05-09T02:15:24.198Z,12.9
2024-05-09T02:16:54.606Z,12.9
2024-05-09T02:18:25.180Z,12.9
2024-05-09T02:19:55.995Z,12.9
2024-05-09T02:21:26.463Z,12.9
2024-05-09T02:22:56.935Z,12.9
2024-05-09T02:24:27.433Z,12.9
2024-05-09T02:25:57.896Z,12.9
2024-05-09T02:27:28.662Z,12.9
2024-05-09T02:28:59.123Z,12.9
2024-05-09T02:30:35.413Z,12.9
2024-05-09T02:32:11.979Z,12.9
2024-05-09T02:33:42.934Z,12.9
2024-05-09T02:35:14.203Z,12.9
2024-05-09T02:36:44.807Z,12.9
2024-05-09T02:38:15.308Z,12.9
2024-05-09T02:39:45.855Z,12.9
2024-05-09T02:41:16.311Z,12.9
2024-05-09T02:42:46.907Z,12.9
2024-05-09T02:44:17.367Z,12.9
2024-05-09T02:45:48.047Z,12.9
2024-05-09T02:47:18.544Z,12.9
2024-05-09T02:48:49.814Z,12.9
2024-05-09T02:50:26.408Z,12.9
2024-05-09T02:52:09.622Z,12.9
2024-05-09T02:53:40.133Z,12.9
2024-05-09T02:55:10.736Z,12.9
2024-05-09T02:56:41.242Z,12.9
2024-05-09T02:58:11.793Z,12.9
2024-05-09T02:59:42.320Z,12.9
2024-05-09T03:01:12.855Z,12.9
2024-05-09T03:02:43.555Z,12.9
2024-05-09T03:04:14.292Z,12.9
2024-05-09T03:05:45.362Z,12.9
2024-05-09T03:07:18.382Z,12.9
2024-05-09T03:08:50.149Z,12.9
2024-05-09T03:10:22.527Z,12.9
2024-05-09T03:12:07.681Z,12.9
2024-05-09T03:13:38.516Z,12.9
2024-05-09T03:15:08.953Z,12.9
2024-05-09T03:16:39.464Z,12.9
2024-05-09T03:18:10.143Z,12.9
2024-05-09T03:19:42.342Z,12.9
2024-05-09T03:21:12.983Z,12.9
2024-05-09T03:22:43.629Z,12.9
2024-05-09T03:24:14.219Z,12.9
2024-05-09T03:25:44.666Z,12.9
2024-05-09T03:27:15.162Z,12.9
2024-05-09T03:28:45.621Z,13
2024-05-09T03:30:25.499Z,12.9
2024-05-09T03:32:11.732Z,12.9
2024-05-09T03:33:42.657Z,12.9
2024-05-09T03:35:13.808Z,12.9
2024-05-09T03:36:44.451Z,12.9
2024-05-09T03:38:15.163Z,12.9
2024-05-09T03:39:46.379Z,12.9
2024-05-09T03:41:16.829Z,12.9
2024-05-09T03:42:47.529Z,12.9
2024-05-09T03:44:18.003Z,12.9
2024-05-09T03:45:48.482Z,12.9
2024-05-09T03:47:19.044Z,12.9
2024-05-09T03:48:50.184Z,12.9
2024-05-09T03:50:25.708Z,12.9
2024-05-09T03:52:06.046Z,12.9
2024-05-09T03:52:23.083Z,12.9
2024-05-09T03:53:53.537Z,12.9
2024-05-09T03:55:24.043Z,12.9
2024-05-09T03:56:54.474Z,12.9
2024-05-09T03:58:25.012Z,12.9
2024-05-09T03:59:55.504Z,12.9
2024-05-09T04:01:26.104Z,12.9
2024-05-09T04:02:56.769Z,12.9
2024-05-09T04:04:27.847Z,13
2024-05-09T04:05:58.514Z,12.9
2024-05-09T04:07:29.062Z,12.9
2024-05-09T04:08:59.903Z,12.9
2024-05-09T04:10:32.879Z,12.9
2024-05-09T04:12:05.501Z,13
2024-05-09T04:13:36.255Z,13
2024-05-09T04:15:08.867Z,13
2024-05-09T04:16:43.065Z,13
2024-05-09T04:18:13.885Z,12.9
2024-05-09T04:19:44.724Z,12.9
2024-05-09T04:21:15.488Z,13
2024-05-09T04:22:46.153Z,13
2024-05-09T04:24:16.869Z,13
2024-05-09T04:25:47.367Z,12.9
2024-05-09T04:27:18.124Z,12.9
2024-05-09T04:28:48.588Z,12.9
2024-05-09T04:30:21.911Z,12.9
2024-05-09T04:32:10.440Z,13
2024-05-09T04:33:41.314Z,13
2024-05-09T04:35:12.196Z,12.9
2024-05-09T04:36:44.309Z,12.9
2024-05-09T04:38:15.526Z,12.9
2024-05-09T04:39:46.784Z,13
2024-05-09T04:41:17.285Z,13
2024-05-09T04:42:47.765Z,13
2024-05-09T04:44:18.300Z,12.9
2024-05-09T04:45:48.995Z,13
2024-05-09T04:47:19.693Z,13
2024-05-09T04:48:50.831Z,13
2024-05-09T04:50:25.671Z,13
2024-05-09T04:52:36.698Z,12.9
2024-05-09T04:54:08.544Z,13
2024-05-09T04:56:08.152Z,13
2024-05-09T04:57:39.378Z,12.9
2024-05-09T04:59:10.607Z,13
2024-05-09T05:00:41.701Z,13
2024-05-09T05:02:28.344Z,13
2024-05-09T05:04:19.673Z,13
2024-05-09T05:06:07.743Z,13
2024-05-09T05:07:38.398Z,13
2024-05-09T05:09:08.918Z,13
2024-05-09T05:10:39.529Z,13
2024-05-09T05:12:10.054Z,13
2024-05-09T05:13:41.639Z,13
2024-05-09T05:15:12.461Z,13
2024-05-09T05:16:42.984Z,13
2024-05-09T05:18:13.639Z,13
2024-05-09T05:19:45.018Z,13
2024-05-09T05:21:16.215Z,13
2024-05-09T05:22:47.169Z,12.9
2024-05-09T05:24:17.630Z,12.9
2024-05-09T05:25:48.364Z,13
2024-05-09T05:27:19.602Z,13
2024-05-09T05:28:50.116Z,13
2024-05-09T05:30:24.707Z,13
2024-05-09T05:32:04.237Z,13
2024-05-09T05:33:35.479Z,12.9
2024-05-09T05:35:06.690Z,13
2024-05-09T05:36:37.279Z,13
2024-05-09T05:38:07.825Z,12.9
2024-05-09T05:39:38.913Z,13
2024-05-09T05:41:09.370Z,13
2024-05-09T05:41:26.561Z,13
2024-05-09T05:42:59.605Z,13
2024-05-09T05:44:30.427Z,12.9
2024-05-09T05:46:01.232Z,13
2024-05-09T05:47:31.792Z,13
2024-05-09T05:49:03.161Z,13
2024-05-09T05:50:35.749Z,12.9
2024-05-09T05:52:14.179Z,13
2024-05-09T05:53:47.137Z,13
2024-05-09T05:55:20.209Z,13
2024-05-09T05:56:50.723Z,13
2024-05-09T05:58:21.402Z,13
2024-05-09T06:00:04.274Z,13
2024-05-09T06:02:15.246Z,13
2024-05-09T06:04:16.777Z,13
2024-05-09T06:05:47.507Z,13
2024-05-09T06:07:18.338Z,13
2024-05-09T06:08:48.833Z,13
2024-05-09T06:10:21.639Z,13
2024-05-09T06:12:09.690Z,13
2024-05-09T06:13:40.511Z,13
2024-05-09T06:15:11.012Z,13
2024-05-09T06:16:41.445Z,13
2024-05-09T06:18:12.491Z,13
2024-05-09T06:19:44.090Z,13
2024-05-09T06:21:14.953Z,13
2024-05-09T06:22:45.981Z,13
2024-05-09T06:24:17.011Z,13
2024-05-09T06:25:47.467Z,13
2024-05-09T06:27:18.188Z,13
2024-05-09T06:28:48.706Z,13
2024-05-09T06:30:21.278Z,13
2024-05-09T06:32:10.730Z,13
2024-05-09T06:33:41.550Z,13
2024-05-09T06:35:12.549Z,13
2024-05-09T06:36:43.129Z,13
2024-05-09T06:38:13.768Z,13
2024-05-09T06:39:44.509Z,13
2024-05-09T06:41:17.412Z,13
2024-05-09T06:42:51.478Z,13
2024-05-09T06:44:22.027Z,13
2024-05-09T06:45:52.920Z,13
2024-05-09T06:47:23.564Z,13
2024-05-09T06:48:54.621Z,13
2024-05-09T06:50:28.049Z,13
2024-05-09T06:52:08.749Z,13
2024-05-09T06:53:39.442Z,13
2024-05-09T06:55:10.236Z,13
2024-05-09T06:56:43.966Z,13
2024-05-09T06:58:14.802Z,13
2024-05-09T06:59:47.822Z,13
2024-05-09T07:01:18.383Z,13
2024-05-09T07:03:34.336Z,13
2024-05-09T07:05:05.197Z,13
2024-05-09T07:06:35.893Z,13
2024-05-09T07:08:06.924Z,13
2024-05-09T07:09:40.358Z,13
2024-05-09T07:11:10.875Z,13
2024-05-09T07:12:44.658Z,12.9
2024-05-09T07:14:18.581Z,13
2024-05-09T07:15:51.298Z,12.9
2024-05-09T07:17:21.907Z,13
2024-05-09T07:18:53.572Z,12.9
2024-05-09T07:20:32.223Z,13
2024-05-09T07:22:05.495Z,13
2024-05-09T07:23:36.043Z,13
2024-05-09T07:25:07.035Z,13
2024-05-09T07:26:37.689Z,13
2024-05-09T07:28:08.488Z,13
2024-05-09T07:29:39.089Z,12.9
2024-05-09T07:31:26.728Z,13
2024-05-09T07:32:57.949Z,13
2024-05-09T07:34:29.514Z,12.9
2024-05-09T07:36:00.240Z,13
2024-05-09T07:37:30.695Z,13
2024-05-09T07:39:01.297Z,12.9
2024-05-09T07:40:34.979Z,13
2024-05-09T07:42:07.169Z,12.9
2024-05-09T07:43:37.668Z,13
2024-05-09T07:45:20.869Z,13
2024-05-09T07:48:13.552Z,13
2024-05-09T07:54:07.288Z,13
2024-05-09T07:55:39.213Z,13
2024-05-09T07:57:10.145Z,12.9
2024-05-09T07:58:40.772Z,13
2024-05-09T08:00:11.911Z,13
2024-05-09T08:03:19.827Z,13
2024-05-09T08:04:50.742Z,13
2024-05-09T08:06:21.555Z,12.9
2024-05-09T08:07:52.063Z,13
2024-05-09T08:09:22.633Z,12.9
2024-05-09T08:10:53.232Z,12.9
2024-05-09T08:12:23.938Z,12.9
2024-05-09T08:13:54.500Z,13
2024-05-09T08:15:24.977Z,12.9
2024-05-09T08:16:55.747Z,13
2024-05-09T08:18:26.588Z,13
2024-05-09T08:19:57.920Z,13
2024-05-09T08:21:30.174Z,13
2024-05-09T08:23:00.914Z,13
2024-05-09T08:24:31.423Z,13
2024-05-09T08:26:01.913Z,13
2024-05-09T08:27:32.479Z,13
2024-05-09T08:29:03.079Z,13
2024-05-09T08:30:36.221Z,13
2024-05-09T08:32:08.758Z,13
2024-05-09T08:33:39.558Z,13
2024-05-09T08:35:10.375Z,13
2024-05-09T08:36:40.968Z,13
2024-05-09T08:38:11.482Z,13
2024-05-09T08:39:42.214Z,13
2024-05-09T08:41:12.878Z,13
2024-05-09T08:42:43.427Z,13
2024-05-09T08:44:13.939Z,13
2024-05-09T08:45:45.240Z,13
2024-05-09T08:47:16.140Z,13
2024-05-09T08:48:46.711Z,13
2024-05-09T08:50:23.978Z,13
2024-05-09T08:52:09.308Z,13
2024-05-09T08:53:39.999Z,13
2024-05-09T08:55:10.589Z,13
2024-05-09T08:56:41.157Z,13
2024-05-09T08:58:11.817Z,13
2024-05-09T08:59:42.701Z,13
2024-05-09T09:01:13.340Z,13
2024-05-09T09:02:44.598Z,13
2024-05-09T09:04:15.873Z,13
2024-05-09T09:05:47.050Z,13
2024-05-09T09:07:17.622Z,13
2024-05-09T09:08:48.298Z,13
2024-05-09T09:10:25.094Z,13
2024-05-09T09:12:03.209Z,13
2024-05-09T09:13:37.891Z,13
2024-05-09T09:15:08.425Z,13
2024-05-09T09:16:38.942Z,13.1
2024-05-09T09:18:12.139Z,13.1
2024-05-09T09:19:43.094Z,13.1
2024-05-09T09:21:13.678Z,13
2024-05-09T09:22:44.208Z,13
2024-05-09T09:24:15.063Z,13
2024-05-09T09:25:45.576Z,13
2024-05-09T09:27:16.075Z,13
2024-05-09T09:28:46.611Z,13
2024-05-09T09:30:26.850Z,13
2024-05-09T09:32:07.741Z,13
2024-05-09T09:33:38.384Z,13
2024-05-09T09:35:09.530Z,13
2024-05-09T09:36:40.049Z,13
2024-05-09T09:38:11.090Z,13
2024-05-09T09:39:41.716Z,13
2024-05-09T09:41:16.704Z,13
2024-05-09T09:42:47.245Z,13
2024-05-09T09:44:17.731Z,13
2024-05-09T09:45:48.282Z,13
2024-05-09T09:47:19.202Z,13
2024-05-09T09:48:49.940Z,13
2024-05-09T09:50:23.993Z,13
2024-05-09T09:52:04.893Z,13
2024-05-09T09:53:56.614Z,13
2024-05-09T09:55:27.174Z,13
2024-05-09T09:56:57.702Z,13
2024-05-09T09:58:28.341Z,13
2024-05-09T09:59:59.212Z,13
2024-05-09T10:01:29.844Z,13.1
2024-05-09T10:03:00.920Z,13.2
2024-05-09T10:04:31.827Z,13.3
2024-05-09T10:06:02.609Z,13.4
2024-05-09T10:07:33.053Z,13.4
2024-05-09T10:09:03.578Z,13.4
2024-05-09T10:10:34.531Z,13.3
2024-05-09T10:12:06.353Z,13.3
2024-05-09T10:13:39.041Z,13.2
2024-05-09T10:15:09.588Z,13.2
2024-05-09T10:16:40.091Z,13.1
2024-05-09T10:18:10.668Z,13.1
2024-05-09T10:19:41.827Z,13.1
2024-05-09T10:21:12.477Z,13.1
2024-05-09T10:22:42.997Z,13.1
2024-05-09T10:24:13.523Z,13.1
2024-05-09T10:25:44.050Z,13.1
2024-05-09T10:27:14.578Z,13.1
2024-05-09T10:28:45.102Z,13.1
2024-05-09T10:30:21.384Z,13.1
2024-05-09T10:32:05.588Z,13.1
2024-05-09T10:33:36.249Z,13.1
2024-05-09T10:35:07.702Z,13.1
2024-05-09T10:36:38.414Z,13
2024-05-09T10:38:08.922Z,13.1
2024-05-09T10:39:39.565Z,13
2024-05-09T10:41:10.156Z,13.1
2024-05-09T10:42:40.744Z,13.1
2024-05-09T10:44:11.431Z,13
2024-05-09T10:45:41.946Z,13
2024-05-09T10:47:12.595Z,13.1
2024-05-09T10:48:43.409Z,13.1
2024-05-09T10:50:18.280Z,13.1
2024-05-09T10:52:02.994Z,13.1
2024-05-09T10:53:33.697Z,13.1
2024-05-09T10:55:05.558Z,13
2024-05-09T10:56:36.480Z,13
2024-05-09T10:58:07.170Z,13.1
2024-05-09T10:59:38.137Z,13.1
2024-05-09T11:01:08.719Z,13
2024-05-09T11:02:40.514Z,13.1
2024-05-09T11:04:11.782Z,13.1
2024-05-09T11:05:43.144Z,13.2
2024-05-09T11:07:14.200Z,13.2
2024-05-09T11:08:44.765Z,13.1
2024-05-09T11:10:18.140Z,13.1
2024-05-09T11:12:03.345Z,13.1
2024-05-09T11:13:34.190Z,13.1
2024-05-09T11:15:04.774Z,13.1
2024-05-09T11:16:35.301Z,13.1
2024-05-09T11:18:05.930Z,13.1
2024-05-09T11:19:36.810Z,13.1
2024-05-09T11:21:07.592Z,13.1
2024-05-09T11:22:38.092Z,13.1
2024-05-09T11:24:10.589Z,13
2024-05-09T11:25:41.611Z,13.1
2024-05-09T11:27:12.144Z,13.1
2024-05-09T11:28:42.683Z,13.1
2024-05-09T11:30:17.372Z,13.1
2024-05-09T11:32:00.860Z,13.1
2024-05-09T11:33:31.340Z,13.1
2024-05-09T11:35:02.148Z,13.1
2024-05-09T11:36:32.725Z,13.1
2024-05-09T11:38:03.492Z,13.1
2024-05-09T11:39:34.166Z,13.1
2024-05-09T11:41:04.660Z,13
2024-05-09T11:41:21.647Z,13.1
2024-05-09T11:42:53.221Z,13
2024-05-09T11:44:24.159Z,13.1
2024-05-09T11:45:54.673Z,13.1
2024-05-09T11:47:25.363Z,13.1
2024-05-09T11:48:56.254Z,13.1
2024-05-09T11:50:30.117Z,13
2024-05-09T11:52:06.200Z,13.1
2024-05-09T11:53:36.902Z,13.1
2024-05-09T11:55:07.440Z,13.1
2024-05-09T11:56:38.238Z,13.1
2024-05-09T11:58:08.806Z,13.1
2024-05-09T11:59:39.616Z,13.1
2024-05-09T12:01:10.161Z,13.1
2024-05-09T12:02:40.850Z,13
2024-05-09T12:04:11.538Z,13.1
2024-05-09T12:05:42.914Z,13.1
2024-05-09T12:07:14.211Z,13.1
2024-05-09T12:08:44.979Z,13.1
2024-05-09T12:10:19.457Z,13.1
2024-05-09T12:12:05.064Z,13.1
2024-05-09T12:13:35.719Z,13.1
2024-05-09T12:15:06.235Z,13.1
2024-05-09T12:16:36.902Z,13.1
2024-05-09T12:18:08.156Z,13.1
2024-05-09T12:19:39.290Z,13.1
2024-05-09T12:21:10.083Z,13.1
2024-05-09T12:22:40.575Z,13.1
2024-05-09T12:24:12.096Z,13.1
2024-05-09T12:25:47.605Z,13.1
2024-05-09T12:27:18.089Z,13.1
2024-05-09T12:28:48.610Z,13.1
2024-05-09T12:30:28.382Z,13.1
2024-05-09T12:32:10.356Z,13.1
2024-05-09T12:33:40.896Z,13.1
2024-05-09T12:35:11.810Z,13.1
2024-05-09T12:36:43.020Z,13.1
2024-05-09T12:38:13.586Z,13.1
2024-05-09T12:39:44.543Z,13.1
2024-05-09T12:41:15.023Z,13.1
2024-05-09T12:42:45.548Z,13.1
2024-05-09T12:44:16.074Z,13.1
2024-05-09T12:45:46.623Z,13.2
2024-05-09T12:47:17.366Z,13.2
2024-05-09T12:48:48.023Z,13.2
2024-05-09T12:50:24.898Z,13.2
2024-05-09T12:52:04.190Z,13.2
2024-05-09T12:53:34.816Z,13.2
2024-05-09T12:55:05.315Z,13.2
2024-05-09T12:56:35.905Z,13.2
2024-05-09T12:58:06.552Z,13.2
2024-05-09T12:59:37.872Z,13.2
2024-05-09T13:01:08.492Z,13.2
2024-05-09T13:02:39.380Z,13.2
2024-05-09T13:04:10.385Z,13.2
2024-05-09T13:05:41.779Z,13.2
2024-05-09T13:07:14.128Z,13.2
2024-05-09T13:08:44.906Z,13.2
2024-05-09T13:10:19.949Z,13.2
2024-05-09T13:12:02.367Z,13.2
2024-05-09T13:13:32.857Z,13.2
2024-05-09T13:15:03.371Z,13.2
2024-05-09T13:16:34.057Z,13.2
2024-05-09T13:18:04.885Z,13.2
2024-05-09T13:19:35.766Z,13.2
2024-05-09T13:21:06.296Z,13.2
2024-05-09T13:22:36.835Z,13.2
2024-05-09T13:24:07.864Z,13.2
2024-05-09T13:25:38.503Z,13.2
2024-05-09T13:27:08.998Z,13.2
2024-05-09T13:28:39.622Z,13.2
2024-05-09T13:30:14.612Z,13.2
2024-05-09T13:30:55.326Z,13.2
2024-05-09T13:32:25.922Z,13.2
2024-05-09T13:33:56.853Z,13.2
2024-05-09T13:35:27.999Z,13.2
2024-05-09T13:36:58.569Z,13.2
2024-05-09T13:38:29.035Z,13.2
2024-05-09T13:39:59.599Z,13.2
2024-05-09T13:41:30.089Z,13.2
2024-05-09T13:43:00.670Z,13.2
2024-05-09T13:44:32.086Z,13.2
2024-05-09T13:46:02.584Z,13.2
2024-05-09T13:47:33.344Z,13.2
2024-05-09T13:49:04.718Z,13.2
2024-05-09T13:50:40.811Z,13.2
2024-05-09T13:52:11.370Z,13.2
2024-05-09T13:53:42.190Z,13.2
2024-05-09T13:55:12.873Z,13.2
2024-05-09T13:56:43.817Z,13.3
2024-05-09T13:58:14.433Z,13.3
2024-05-09T13:59:45.287Z,13.2
2024-05-09T14:03:23.397Z,13.2
2024-05-09T14:04:54.199Z,13.2
2024-05-09T14:06:25.333Z,13.2
2024-05-09T14:07:55.871Z,13.2
2024-05-09T14:09:26.379Z,13.2
2024-05-09T14:10:56.933Z,13.2
2024-05-09T14:12:27.665Z,13.2
2024-05-09T14:13:58.159Z,13.2
2024-05-09T14:15:28.713Z,13.2
2024-05-09T14:16:59.533Z,13.2
2024-05-09T14:18:30.357Z,13.2
2024-05-09T14:20:01.179Z,13.2
2024-05-09T14:21:33.069Z,13.3
2024-05-09T14:23:03.645Z,13.3
2024-05-09T14:24:34.198Z,13.3
2024-05-09T14:26:04.806Z,13.2
2024-05-09T14:27:35.390Z,13.2
2024-05-09T14:29:05.842Z,13.2
2024-05-09T14:30:37.531Z,13.2
2024-05-09T14:32:09.762Z,13.2
2024-05-09T14:33:40.367Z,13.2
2024-05-09T14:35:11.465Z,13.3
2024-05-09T14:36:42.102Z,13.3
2024-05-09T14:38:12.553Z,13.3
2024-05-09T14:39:43.108Z,13.2
2024-05-09T14:41:13.633Z,13.3
2024-05-09T14:42:44.145Z,13.3
2024-05-09T14:44:14.752Z,13.3
2024-05-09T14:45:45.359Z,13.3
2024-05-09T14:47:15.922Z,13.3
2024-05-09T14:48:46.892Z,13.3
2024-05-09T14:50:23.622Z,13.3
2024-05-09T14:52:09.062Z,13.3
2024-05-09T14:53:40.002Z,13.3
2024-05-09T14:55:12.293Z,13.3
2024-05-09T14:56:43.198Z,13.3
2024-05-09T14:58:13.850Z,13.3
2024-05-09T14:59:44.658Z,13.3
2024-05-09T15:01:15.220Z,13.3
2024-05-09T15:02:46.546Z,13.2
2024-05-09T15:04:19.737Z,13.3
2024-05-09T15:05:51.437Z,13.3
2024-05-09T15:07:23.120Z,13.3
2024-05-09T15:08:53.872Z,13.2
2024-05-09T15:10:31.073Z,13.3
2024-05-09T15:12:07.072Z,13.3
2024-05-09T15:13:37.630Z,13.3
2024-05-09T15:15:08.184Z,13.3
2024-05-09T15:16:38.629Z,13.3
2024-05-09T15:18:09.278Z,13.3
2024-05-09T15:19:40.015Z,13.3
2024-05-09T15:21:11.150Z,13.3
2024-05-09T15:22:41.776Z,13.3
2024-05-09T15:24:12.282Z,13.3
2024-05-09T15:25:42.797Z,13.3
2024-05-09T15:27:13.446Z,13.3
2024-05-09T15:28:43.952Z,13.3
2024-05-09T15:30:15.564Z,13.3
2024-05-09T15:32:01.360Z,13.3
2024-05-09T15:33:32.029Z,13.3
2024-05-09T15:35:02.953Z,13.3
2024-05-09T15:36:33.584Z,13.3
2024-05-09T15:38:04.617Z,13.3
2024-05-09T15:39:35.442Z,13.3
2024-05-09T15:41:05.955Z,13.3
2024-05-09T15:42:36.493Z,13.3
2024-05-09T15:44:11.283Z,13.3
2024-05-09T15:45:42.111Z,13.3
2024-05-09T15:47:12.747Z,13.3
2024-05-09T15:48:44.675Z,13.3
2024-05-09T15:50:20.176Z,13.3
2024-05-09T15:53:58.073Z,13.3
2024-05-09T15:55:28.754Z,13.3
2024-05-09T15:56:59.426Z,13.3
2024-05-09T15:58:29.977Z,13.3
2024-05-09T16:00:00.656Z,13.3
2024-05-09T16:01:34.323Z,13.3
2024-05-09T16:03:05.137Z,13.3
2024-05-09T16:04:36.275Z,13.3
2024-05-09T16:06:06.990Z,13.3
2024-05-09T16:07:37.514Z,13.3
2024-05-09T16:09:08.021Z,13.3
2024-05-09T16:10:39.228Z,13.3
2024-05-09T16:12:14.893Z,13.4
2024-05-09T16:13:45.413Z,13.3
2024-05-09T16:15:15.949Z,13.3
2024-05-09T16:16:47.146Z,13.4
2024-05-09T16:18:18.083Z,13.4
2024-05-09T16:19:48.752Z,13.3
2024-05-09T16:21:19.272Z,13.4
2024-05-09T16:22:49.889Z,13.3
2024-05-09T16:24:20.415Z,13.3
2024-05-09T16:25:50.932Z,13.4
2024-05-09T16:27:21.482Z,13.4
2024-05-09T16:28:52.002Z,13.3
2024-05-09T16:30:27.708Z,13.3
2024-05-09T16:32:06.036Z,13.3
2024-05-09T16:33:36.945Z,13.4
2024-05-09T16:35:08.085Z,13.3
2024-05-09T16:36:38.649Z,13.3
2024-05-09T16:38:09.140Z,13.4
2024-05-09T16:39:39.667Z,13.4
2024-05-09T16:41:10.175Z,13.4
2024-05-09T16:42:40.759Z,13.4
2024-05-09T16:44:11.323Z,13.4
2024-05-09T16:45:41.953Z,13.4
2024-05-09T16:47:13.112Z,13.3
2024-05-09T16:48:43.710Z,13.3
2024-05-09T16:50:19.047Z,13.3
2024-05-09T16:52:02.443Z,13.4
2024-05-09T16:53:33.111Z,13.4
2024-05-09T16:55:03.872Z,13.4
2024-05-09T16:56:34.995Z,13.4
2024-05-09T16:58:05.656Z,13.4
2024-05-09T16:59:37.499Z,13.4
2024-05-09T17:01:08.130Z,13.4
2024-05-09T17:02:38.985Z,13.4
2024-05-09T17:04:10.018Z,13.4
2024-05-09T17:05:42.357Z,13.4
2024-05-09T17:07:15.017Z,13.4
2024-05-09T17:08:45.813Z,13.4
2024-05-09T17:10:22.467Z,13.4
2024-05-09T17:12:04.466Z,13.4
2024-05-09T17:13:35.008Z,13.4
2024-05-09T17:15:06.712Z,13.4
2024-05-09T17:16:37.307Z,13.5
2024-05-09T17:18:08.183Z,13.6
2024-05-09T17:19:38.959Z,13.6
2024-05-09T19:41:33.863Z,13.7
2024-05-09T19:43:04.950Z,13.7
2024-05-09T19:44:36.802Z,13.7
2024-05-09T19:46:07.299Z,13.7
2024-05-09T19:47:37.957Z,13.6
2024-05-09T19:49:09.883Z,13.7
2024-05-09T19:50:43.077Z,13.7
2024-05-09T19:52:19.948Z,13.6
2024-05-09T19:53:50.447Z,13.6
2024-05-09T19:55:20.982Z,13.6
2024-05-09T19:56:51.521Z,13.6
2024-05-09T19:58:23.158Z,13.6
2024-05-09T19:59:55.183Z,13.6
2024-05-09T20:01:26.770Z,13.5
2024-05-09T20:02:57.537Z,13.6
2024-05-09T20:04:28.803Z,13.6
2024-05-09T20:05:59.886Z,13.5
2024-05-09T20:07:32.647Z,13.5
2024-05-09T20:09:05.728Z,13.5
2024-05-09T20:10:36.947Z,13.5
2024-05-09T20:12:08.804Z,13.5
2024-05-09T20:13:39.310Z,13.5
2024-05-09T20:15:10.157Z,13.5
2024-05-09T20:16:43.576Z,13.5
2024-05-09T20:18:14.260Z,13.4
2024-05-09T20:19:45.225Z,13.4
2024-05-09T20:21:16.037Z,13.4
2024-05-09T20:22:46.556Z,13.5
2024-05-09T20:24:17.057Z,13.4
2024-05-09T20:25:47.631Z,13.4
2024-05-09T20:27:18.243Z,13.5
2024-05-09T20:28:50.072Z,13.5
2024-05-09T20:30:24.706Z,13.5
2024-05-09T20:32:04.265Z,13.5
2024-05-09T20:33:34.974Z,13.5
2024-05-09T20:35:05.907Z,13.4
2024-05-09T20:36:36.441Z,13.5
2024-05-09T20:38:06.912Z,13.5
2024-05-09T20:39:37.515Z,13.5
2024-05-09T20:41:08.090Z,13.5
2024-05-09T20:42:39.727Z,13.5
2024-05-09T20:44:10.463Z,13.5
2024-05-09T20:45:41.205Z,13.4
2024-05-09T20:47:12.054Z,13.5
2024-05-09T20:48:43.700Z,13.5
2024-05-09T20:50:20.126Z,13.5
2024-05-09T20:52:10.991Z,13.5
2024-05-09T20:53:41.552Z,13.5
2024-05-09T20:55:12.409Z,13.5
2024-05-09T20:56:43.097Z,13.4
2024-05-09T20:58:13.914Z,13.5
2024-05-09T20:59:44.664Z,13.4
2024-05-09T21:03:16.107Z,13.4
2024-05-09T21:04:48.726Z,13.4
2024-05-09T21:06:19.758Z,13.4
2024-05-09T21:07:50.339Z,13.4
2024-05-09T21:09:20.856Z,13.4
2024-05-09T21:10:51.463Z,13.4
2024-05-09T21:12:23.510Z,13.4
2024-05-09T21:13:54.153Z,13.5
2024-05-09T21:15:24.741Z,13.4
2024-05-09T21:16:55.477Z,13.5
2024-05-09T21:18:26.325Z,13.4
2024-05-09T21:19:56.923Z,13.4
2024-05-09T21:24:01.742Z,13.4
2024-05-09T21:25:32.435Z,13.4
2024-05-09T21:27:02.975Z,13.5
2024-05-09T21:28:33.666Z,13.5
2024-05-09T21:30:04.539Z,13.5
2024-05-09T21:31:51.030Z,13.5
2024-05-09T21:33:21.913Z,13.5
2024-05-09T21:34:52.850Z,13.5
2024-05-09T21:36:23.422Z,13.5
2024-05-09T21:37:53.935Z,13.5
2024-05-09T21:39:24.450Z,13.5
2024-05-09T21:40:55.108Z,13.5
2024-05-09T21:42:26.239Z,13.5
2024-05-09T21:43:56.740Z,13.5
2024-05-09T21:45:27.189Z,13.5
2024-05-09T21:46:58.056Z,13.5
2024-05-09T21:48:28.629Z,13.5
2024-05-09T21:49:59.154Z,13.5
2024-05-09T21:51:29.576Z,13.5
2024-05-09T21:53:00.327Z,13.5
2024-05-09T21:54:30.742Z,13.5
2024-05-09T21:56:01.232Z,13.5
2024-05-09T21:57:31.664Z,13.4
2024-05-09T21:59:02.166Z,13.4
2024-05-09T22:00:35.355Z,13.4
2024-05-09T22:02:09.606Z,13.4
2024-05-09T22:03:40.802Z,13.5
2024-05-09T22:05:11.947Z,13.5
2024-05-09T22:06:43.194Z,13.4
2024-05-09T22:08:13.723Z,13.4
2024-05-09T22:09:44.297Z,13.4
2024-05-09T22:11:14.988Z,13.5
2024-05-09T22:12:45.504Z,13.5
2024-05-09T22:14:16.010Z,13.5
2024-05-09T22:15:46.476Z,13.5
2024-05-09T22:17:16.976Z,13.5
2024-05-09T22:18:47.496Z,13.5
2024-05-09T22:20:22.399Z,13.5
2024-05-09T22:22:08.201Z,13.5
2024-05-09T22:23:38.815Z,13.5
2024-05-09T22:25:09.232Z,13.5
2024-05-09T22:26:39.843Z,13.5
2024-05-09T22:28:10.294Z,13.5
2024-05-09T22:29:40.782Z,13.5
2024-05-09T22:31:11.236Z,13.5
2024-05-09T22:32:41.904Z,13.5
2024-05-09T22:34:12.598Z,13.5
2024-05-09T22:35:43.399Z,13.5
2024-05-09T22:37:13.852Z,13.5
2024-05-09T22:38:44.537Z,13.6
2024-05-09T22:40:17.708Z,13.5
2024-05-09T22:42:17.651Z,13.5
2024-05-09T22:43:48.175Z,13.5
2024-05-09T22:45:18.682Z,13.5
2024-05-09T22:46:49.113Z,13.5
2024-05-09T22:48:19.987Z,13.5
2024-05-09T22:49:50.989Z,13.5
2024-05-09T22:51:21.483Z,13.5
2024-05-09T22:53:08.799Z,13.5
2024-05-09T22:54:39.328Z,13.5
2024-05-09T22:56:09.861Z,13.5
2024-05-09T22:57:40.367Z,13.5
2024-05-09T22:59:11.093Z,13.5
2024-05-09T23:00:41.634Z,13.5
2024-05-09T23:02:12.498Z,13.5
2024-05-09T23:03:43.308Z,13.5
2024-05-09T23:05:14.401Z,13.5
2024-05-09T23:06:45.538Z,13.5
2024-05-09T23:08:16.172Z,13.5
2024-05-09T23:09:46.647Z,13.5
2024-05-09T23:11:17.357Z,13.5
2024-05-09T23:12:47.856Z,13.5
2024-05-09T23:14:18.504Z,13.6
2024-05-09T23:15:49.126Z,13.5
2024-05-09T23:17:19.865Z,13.5
2024-05-09T23:18:50.650Z,13.5
2024-05-09T23:20:28.832Z,13.6
2024-05-09T23:22:08.917Z,13.6